Time;durP1;ratioP1;P1;durP2;ratioP2;P2;SDS_P1;SDS_P2;PMS_P1;PMS_P2;Temp;Humidity;BMP_temperature;BMP_pressure;BME280_temperature;BME280_humidity;BME280_pressure;Samples;Min_cycle;Max_cycle;Signal;HPM_P1;HPM_P2
2022/08/06 00:01:25;;;;;;;1.90;1.67;;;;;;;;;;5122138;28;20207;-62
2022/08/06 00:03:53;;;;;;;4.97;1.63;;;;;;;;;;5122342;28;20222;-62
2022/08/06 00:06:22;;;;;;;4.13;1.67;;;;;;;;;;5122213;28;20204;-62
2022/08/06 00:08:58;;;;;;;2.07;1.60;;;;;;;;;;5121973;28;20804;-62
2022/08/06 00:11:26;;;;;;;1.73;1.53;;;;;;;;;;5121684;28;20239;-62
2022/08/06 00:13:54;;;;;;;2.47;1.53;;;;;;;;;;5121842;28;20660;-62
2022/08/06 00:16:25;;;;;;;2.20;1.73;;;;;;;;;;5089474;28;20642;-62
2022/08/06 00:19:03;;;;;;;2.10;1.90;;;;;;;;;;5099104;28;20217;-62
2022/08/06 00:21:34;;;;;;;2.20;1.60;;;;;;;;;;5097086;28;20705;-62
2022/08/06 00:24:10;;;;;;;2.90;2.03;;;;;;;;;;5101019;28;20223;-62
2022/08/06 00:26:51;;;;;;;2.83;1.90;;;;;;;;;;5107000;28;20976;-62
2022/08/06 00:29:33;;;;;;;3.47;2.20;;;;;;;;;;5113632;28;20558;-62
2022/08/06 00:32:14;;;;;;;3.27;1.80;;;;;;;;;;5100585;28;20200;-62
2022/08/06 00:34:51;;;;;;;6.60;2.13;;;;;;;;;;5100844;28;20226;-62
2022/08/06 00:37:19;;;;;;;5.20;2.00;;;;;;;;;;5100663;28;20243;-62
2022/08/06 00:39:56;;;;;;;3.73;2.00;;;;;;;;;;5093879;28;20551;-62
2022/08/06 00:42:24;;;;;;;2.57;2.30;;;;;;;;;;5100987;28;20210;-61
2022/08/06 00:44:54;;;;;;;2.23;2.13;;;;;;;;;;5094692;28;20231;-62
2022/08/06 00:47:22;;;;;;;3.10;2.00;;;;;;;;;;5100877;28;20216;-62
2022/08/06 00:50:10;;;;;;;3.13;2.20;;;;;;;;;;5100695;28;20313;-62
2022/08/06 00:52:38;;;;;;;3.17;2.00;;;;;;;;;;5100701;28;20232;-62
2022/08/06 00:55:08;;;;;;;3.20;2.10;;;;;;;;;;5106732;28;20245;-62
2022/08/06 00:57:44;;;;;;;2.77;1.87;;;;;;;;;;5121197;27;20214;-62
2022/08/06 01:00:12;;;;;;;3.00;2.00;;;;;;;;;;5120976;28;20677;-62
2022/08/06 01:02:57;;;;;;;2.50;1.93;;;;;;;;;;5120567;28;20682;-62
2022/08/06 01:05:25;;;;;;;2.97;1.93;;;;;;;;;;5120801;28;20218;-62
2022/08/06 01:08:13;;;;;;;3.30;2.03;;;;;;;;;;5121228;28;20207;-62
2022/08/06 01:10:43;;;;;;;4.37;1.90;;;;;;;;;;5120520;28;20584;-62
2022/08/06 01:13:12;;;;;;;3.60;2.00;;;;;;;;;;5120660;28;20248;-62
2022/08/06 01:15:56;;;;;;;3.10;2.10;;;;;;;;;;5094443;28;20213;-62
2022/08/06 01:18:39;;;;;;;2.67;1.63;;;;;;;;;;5100501;28;20208;-62
2022/08/06 01:21:11;;;;;;;3.03;1.90;;;;;;;;;;5100379;28;20262;-62
2022/08/06 01:24:17;;;;;;;4.63;2.27;;;;;;;;;;5099756;28;20231;-62
2022/08/06 01:26:50;;;;;;;4.23;1.87;;;;;;;;;;5093047;28;20211;-62
2022/08/06 01:29:25;;;;;;;3.47;1.83;;;;;;;;;;5099945;28;20649;-62
2022/08/06 01:32:04;;;;;;;5.93;2.17;;;;;;;;;;5099934;28;20206;-62
2022/08/06 01:34:36;;;;;;;2.07;1.90;;;;;;;;;;5100141;28;20285;-62
2022/08/06 01:37:13;;;;;;;1.80;1.70;;;;;;;;;;5100042;28;20313;-62
2022/08/06 01:39:43;;;;;;;3.00;2.10;;;;;;;;;;5100232;28;20216;-62
2022/08/06 01:42:30;;;;;;;2.10;1.97;;;;;;;;;;5100023;28;20201;-62
2022/08/06 01:45:07;;;;;;;2.97;2.10;;;;;;;;;;5099890;28;20243;-62
2022/08/06 01:47:37;;;;;;;3.77;1.90;;;;;;;;;;5112573;28;20281;-62
2022/08/06 01:50:23;;;;;;;4.90;2.40;;;;;;;;;;5119111;28;20283;-62
2022/08/06 01:52:56;;;;;;;2.27;2.07;;;;;;;;;;5099641;28;20206;-63
2022/08/06 01:55:28;;;;;;;2.93;2.20;;;;;;;;;;5086701;28;20649;-62
2022/08/06 01:58:18;;;;;;;2.67;2.00;;;;;;;;;;5099483;28;20213;-62
2022/08/06 02:00:58;;;;;;;3.27;2.37;;;;;;;;;;5099670;28;20327;-62
2022/08/06 02:03:31;;;;;;;3.20;2.17;;;;;;;;;;5099797;28;20310;-62
2022/08/06 02:06:19;;;;;;;2.80;1.80;;;;;;;;;;5099262;28;20207;-62
2022/08/06 02:08:58;;;;;;;2.17;1.97;;;;;;;;;;5099570;28;20215;-62
2022/08/06 02:11:52;;;;;;;4.67;2.40;;;;;;;;;;5099135;28;20313;-62
2022/08/06 02:14:34;;;;;;;3.20;2.10;;;;;;;;;;5099242;28;20295;-62
2022/08/06 02:17:04;;;;;;;4.27;2.20;;;;;;;;;;5098497;28;20237;-62
2022/08/06 02:19:43;;;;;;;3.30;2.20;;;;;;;;;;5099497;28;20231;-62
2022/08/06 02:22:27;;;;;;;2.23;2.13;;;;;;;;;;5099003;28;20575;-62
2022/08/06 02:24:58;;;;;;;4.60;2.60;;;;;;;;;;5098689;28;20332;-62
2022/08/06 02:27:30;;;;;;;2.53;2.33;;;;;;;;;;5099005;28;20241;-63
2022/08/06 02:30:18;;;;;;;4.10;2.37;;;;;;;;;;5098620;28;20662;-62
2022/08/06 02:32:57;;;;;;;2.30;2.10;;;;;;;;;;5099613;28;20648;-62
2022/08/06 02:35:30;;;;;;;4.30;2.77;;;;;;;;;;5098848;28;20200;-62
2022/08/06 02:38:08;;;;;;;7.33;2.17;;;;;;;;;;5099012;28;20238;-62
2022/08/06 02:40:38;;;;;;;3.13;2.70;;;;;;;;;;5098798;28;20261;-62
2022/08/06 02:43:09;;;;;;;3.10;2.60;;;;;;;;;;5098747;28;20231;-62
2022/08/06 02:45:40;;;;;;;2.60;2.40;;;;;;;;;;5098573;28;20243;-63
2022/08/06 02:48:28;;;;;;;3.30;3.10;;;;;;;;;;5098791;28;20203;-62
2022/08/06 02:51:00;;;;;;;2.60;2.40;;;;;;;;;;5098445;28;20225;-63
2022/08/06 02:53:33;;;;;;;2.63;2.10;;;;;;;;;;5098522;28;20320;-62
2022/08/06 02:56:23;;;;;;;3.37;2.10;;;;;;;;;;5099118;28;20275;-62
2022/08/06 02:58:56;;;;;;;3.60;2.67;;;;;;;;;;5118975;28;20201;-62
2022/08/06 03:01:29;;;;;;;2.63;2.40;;;;;;;;;;5118352;28;20639;-62
2022/08/06 03:04:14;;;;;;;3.57;2.37;;;;;;;;;;5117608;28;20626;-62
2022/08/06 03:06:46;;;;;;;3.10;2.33;;;;;;;;;;5115768;28;20205;-61
2022/08/06 03:09:16;;;;;;;3.47;2.30;;;;;;;;;;5094932;28;20204;-61
2022/08/06 03:11:48;;;;;;;5.20;3.33;;;;;;;;;;5098259;28;20249;-62
2022/08/06 03:14:17;;;;;;;2.87;2.50;;;;;;;;;;5095275;28;20226;-62
2022/08/06 03:17:08;;;;;;;3.40;2.57;;;;;;;;;;5096762;28;20292;-62
2022/08/06 03:19:38;;;;;;;2.77;2.50;;;;;;;;;;5097864;28;20199;-62
2022/08/06 03:22:25;;;;;;;3.97;2.30;;;;;;;;;;5097978;28;20198;-62
2022/08/06 03:25:06;;;;;;;6.07;2.73;;;;;;;;;;5095930;28;20241;-62
2022/08/06 03:27:36;;;;;;;3.83;2.30;;;;;;;;;;5096149;28;20250;-62
2022/08/06 03:30:12;;;;;;;2.80;2.57;;;;;;;;;;5096698;28;20201;-62
2022/08/06 03:33:00;;;;;;;2.70;2.20;;;;;;;;;;5098669;28;20205;-62
2022/08/06 03:35:50;;;;;;;2.90;2.70;;;;;;;;;;5096953;28;20202;-62
2022/08/06 03:38:21;;;;;;;2.40;2.20;;;;;;;;;;5097778;28;20208;-62
2022/08/06 03:40:56;;;;;;;4.60;2.70;;;;;;;;;;5097567;28;20196;-62
2022/08/06 03:43:24;;;;;;;4.60;2.80;;;;;;;;;;5097382;28;20807;-62
2022/08/06 03:45:59;;;;;;;3.83;2.50;;;;;;;;;;5097401;28;20633;-62
2022/08/06 03:48:29;;;;;;;3.00;2.57;;;;;;;;;;5097774;28;20240;-62
2022/08/06 03:51:07;;;;;;;5.17;2.47;;;;;;;;;;5097860;28;20229;-62
2022/08/06 03:53:37;;;;;;;3.83;2.43;;;;;;;;;;5097658;28;20226;-62
2022/08/06 03:56:12;;;;;;;2.97;2.67;;;;;;;;;;5097601;28;20206;-62
2022/08/06 03:58:42;;;;;;;2.30;2.00;;;;;;;;;;5105475;28;20204;-62
2022/08/06 04:01:12;;;;;;;4.70;2.13;;;;;;;;;;5117508;28;20234;-62
2022/08/06 04:03:40;;;;;;;3.53;2.63;;;;;;;;;;5118152;28;20229;-62
2022/08/06 04:06:10;;;;;;;3.27;2.80;;;;;;;;;;5117878;28;20636;-62
2022/08/06 04:08:47;;;;;;;3.07;2.37;;;;;;;;;;5118162;28;20214;-62
2022/08/06 04:11:17;;;;;;;3.70;2.40;;;;;;;;;;5117822;28;20232;-62
2022/08/06 04:14:05;;;;;;;5.13;2.83;;;;;;;;;;5117906;28;20229;-62
2022/08/06 04:16:36;;;;;;;3.60;2.53;;;;;;;;;;5117902;28;20203;-62
2022/08/06 04:19:05;;;;;;;4.07;2.27;;;;;;;;;;5118039;28;20235;-61
2022/08/06 04:21:41;;;;;;;3.70;2.20;;;;;;;;;;5117823;28;20207;-61
2022/08/06 04:24:29;;;;;;;2.50;2.30;;;;;;;;;;5101889;28;20243;-62
2022/08/06 04:27:00;;;;;;;4.27;2.60;;;;;;;;;;5110147;28;20197;-62
2022/08/06 04:29:36;;;;;;;2.77;2.27;;;;;;;;;;5117738;28;20236;-61
2022/08/06 04:32:25;;;;;;;2.73;2.50;;;;;;;;;;5117349;28;20225;-58
2022/08/06 04:34:58;;;;;;;4.70;2.40;;;;;;;;;;5107764;28;20313;-59
2022/08/06 04:37:48;;;;;;;2.40;2.10;;;;;;;;;;5085917;28;20206;-59
2022/08/06 04:40:20;;;;;;;6.00;2.80;;;;;;;;;;5097610;28;20205;-60
2022/08/06 04:43:02;;;;;;;4.50;2.60;;;;;;;;;;5101048;28;20205;-59
2022/08/06 04:45:30;;;;;;;4.03;2.37;;;;;;;;;;5101111;28;20269;-60
2022/08/06 04:48:18;;;;;;;3.77;2.00;;;;;;;;;;5100727;28;20579;-59
2022/08/06 04:50:48;;;;;;;2.63;1.87;;;;;;;;;;5101052;28;20201;-60
2022/08/06 04:53:23;;;;;;;4.80;3.07;;;;;;;;;;5101941;28;20221;-60
2022/08/06 04:56:11;;;;;;;2.30;2.10;;;;;;;;;;5100759;28;20217;-59
2022/08/06 04:58:44;;;;;;;2.10;2.00;;;;;;;;;;5100966;28;20211;-60
2022/08/06 05:01:12;;;;;;;3.30;2.17;;;;;;;;;;5104255;28;20211;-60
2022/08/06 05:03:41;;;;;;;3.60;2.17;;;;;;;;;;5121122;28;20228;-59
2022/08/06 05:06:34;;;;;;;2.60;2.40;;;;;;;;;;5120813;28;20201;-60
2022/08/06 05:09:05;;;;;;;2.60;2.17;;;;;;;;;;5121185;28;20240;-59
2022/08/06 05:11:52;;;;;;;4.50;1.90;;;;;;;;;;5120706;28;20226;-60
2022/08/06 05:14:29;;;;;;;2.90;2.30;;;;;;;;;;5096124;28;20227;-60
2022/08/06 05:16:57;;;;;;;3.33;2.20;;;;;;;;;;5100081;28;20678;-59
2022/08/06 05:19:29;;;;;;;4.33;2.27;;;;;;;;;;5100487;28;20211;-59
2022/08/06 05:21:58;;;;;;;2.07;1.70;;;;;;;;;;5100269;28;20238;-60
2022/08/06 05:24:39;;;;;;;4.53;2.23;;;;;;;;;;5099949;28;20640;-60
2022/08/06 05:27:27;;;;;;;2.93;2.17;;;;;;;;;;5100152;28;20212;-60
2022/08/06 05:30:15;;;;;;;3.90;2.20;;;;;;;;;;5110263;28;20201;-60
2022/08/06 05:32:43;;;;;;;2.53;2.10;;;;;;;;;;5119963;28;20257;-60
2022/08/06 05:35:12;;;;;;;4.07;2.20;;;;;;;;;;5119397;28;20257;-60
2022/08/06 05:37:45;;;;;;;2.33;2.10;;;;;;;;;;5099890;28;20209;-60
2022/08/06 05:40:35;;;;;;;2.40;2.07;;;;;;;;;;5099956;28;20214;-60
2022/08/06 05:43:23;;;;;;;2.67;2.33;;;;;;;;;;5099780;28;20218;-59
2022/08/06 05:46:12;;;;;;;2.30;2.10;;;;;;;;;;5099387;28;20211;-60
2022/08/06 05:48:43;;;;;;;3.60;2.20;;;;;;;;;;5099882;28;20229;-59
2022/08/06 05:51:20;;;;;;;2.77;2.00;;;;;;;;;;5100765;28;20205;-60
2022/08/06 05:54:11;;;;;;;4.73;2.67;;;;;;;;;;5099182;28;20219;-60
2022/08/06 05:56:45;;;;;;;2.60;2.23;;;;;;;;;;5114592;28;20549;-60
2022/08/06 05:59:16;;;;;;;5.60;2.43;;;;;;;;;;5119821;28;20260;-60
2022/08/06 06:02:04;;;;;;;5.03;2.40;;;;;;;;;;5119788;28;20206;-59
2022/08/06 06:04:33;;;;;;;3.60;2.33;;;;;;;;;;5119896;27;20283;-60
2022/08/06 06:07:02;;;;;;;5.37;2.27;;;;;;;;;;5119761;28;20334;-60
2022/08/06 06:09:36;;;;;;;4.03;2.50;;;;;;;;;;5119595;28;21687;-59
2022/08/06 06:12:26;;;;;;;2.87;2.47;;;;;;;;;;5119724;28;20223;-60
2022/08/06 06:15:00;;;;;;;4.37;2.80;;;;;;;;;;5111928;28;20268;-60
2022/08/06 06:17:52;;;;;;;3.47;2.30;;;;;;;;;;5098769;28;20216;-59
2022/08/06 06:20:33;;;;;;;3.43;2.43;;;;;;;;;;5099388;28;20217;-59
2022/08/06 06:23:25;;;;;;;3.37;2.70;;;;;;;;;;5099206;28;20221;-60
2022/08/06 06:26:01;;;;;;;2.77;2.50;;;;;;;;;;5098716;28;20252;-59
2022/08/06 06:28:33;;;;;;;4.00;2.60;;;;;;;;;;5106639;28;20232;-59
2022/08/06 06:31:08;;;;;;;4.97;2.57;;;;;;;;;;5098518;28;20204;-60
2022/08/06 06:33:40;;;;;;;2.93;2.30;;;;;;;;;;5098696;28;20632;-59
2022/08/06 06:36:22;;;;;;;3.87;2.70;;;;;;;;;;5098751;28;20216;-60
2022/08/06 06:38:57;;;;;;;2.80;2.60;;;;;;;;;;5098944;28;20208;-60
2022/08/06 06:41:28;;;;;;;4.07;2.87;;;;;;;;;;5098818;28;20240;-59
2022/08/06 06:44:05;;;;;;;3.80;2.50;;;;;;;;;;5098465;28;20688;-59
2022/08/06 06:46:47;;;;;;;3.93;2.27;;;;;;;;;;5096154;28;20718;-60
2022/08/06 06:49:18;;;;;;;5.40;2.87;;;;;;;;;;5098453;28;20204;-60
2022/08/06 06:52:09;;;;;;;2.70;2.50;;;;;;;;;;5098228;28;20216;-60
2022/08/06 06:54:40;;;;;;;4.27;2.90;;;;;;;;;;5098216;28;20251;-60
2022/08/06 06:57:12;;;;;;;3.27;2.90;;;;;;;;;;5098240;28;20202;-59
2022/08/06 06:59:46;;;;;;;4.43;2.30;;;;;;;;;;5098241;28;20218;-59
2022/08/06 07:02:36;;;;;;;4.03;2.10;;;;;;;;;;5097937;28;20228;-60
2022/08/06 07:05:06;;;;;;;4.07;2.87;;;;;;;;;;5097662;28;20790;-60
2022/08/06 07:07:35;;;;;;;3.43;2.80;;;;;;;;;;5098370;28;20206;-59
2022/08/06 07:10:06;;;;;;;3.20;2.60;;;;;;;;;;5098288;28;20218;-60
2022/08/06 07:12:38;;;;;;;3.03;2.73;;;;;;;;;;5098057;28;20231;-60
2022/08/06 07:15:09;;;;;;;3.43;2.73;;;;;;;;;;5092754;28;20257;-60
2022/08/06 07:17:45;;;;;;;2.43;2.23;;;;;;;;;;5096270;28;20212;-60
2022/08/06 07:20:19;;;;;;;2.80;2.23;;;;;;;;;;5096395;28;20220;-60
2022/08/06 07:22:54;;;;;;;3.20;2.57;;;;;;;;;;5096134;28;20207;-60
2022/08/06 07:25:43;;;;;;;3.03;2.70;;;;;;;;;;5095642;28;20260;-60
2022/08/06 07:28:25;;;;;;;3.40;2.47;;;;;;;;;;5096291;28;20248;-60
2022/08/06 07:30:56;;;;;;;3.03;2.73;;;;;;;;;;5095964;28;20209;-60
2022/08/06 07:33:34;;;;;;;3.27;2.60;;;;;;;;;;5097694;28;20235;-60
2022/08/06 07:36:23;;;;;;;3.77;2.63;;;;;;;;;;5097764;28;20210;-60
2022/08/06 07:38:54;;;;;;;8.43;2.97;;;;;;;;;;5098674;28;20263;-60
2022/08/06 07:41:23;;;;;;;2.87;2.50;;;;;;;;;;5117905;28;20210;-60
2022/08/06 07:44:13;;;;;;;4.27;2.60;;;;;;;;;;5116618;28;20233;-60
2022/08/06 07:46:50;;;;;;;5.10;2.53;;;;;;;;;;5116238;28;20674;-60
2022/08/06 07:49:21;;;;;;;4.93;2.57;;;;;;;;;;5117941;28;20251;-60
2022/08/06 07:52:10;;;;;;;5.53;2.40;;;;;;;;;;5117277;28;20207;-60
2022/08/06 07:54:45;;;;;;;2.70;2.50;;;;;;;;;;5097727;28;20236;-60
2022/08/06 07:57:13;;;;;;;5.33;3.93;;;;;;;;;;5097697;28;20250;-60
2022/08/06 07:59:47;;;;;;;3.87;2.50;;;;;;;;;;5097741;28;20212;-60
2022/08/06 08:02:24;;;;;;;5.43;3.00;;;;;;;;;;5097544;28;20207;-60
2022/08/06 08:07:43;;;;;;;5.47;2.20;;;;;;;;;;5097773;28;20205;-60
2022/08/06 08:10:23;;;;;;;5.00;2.87;;;;;;;;;;5097588;28;20216;-60
2022/08/06 08:12:56;;;;;;;3.03;2.73;;;;;;;;;;5097627;28;20235;-60
2022/08/06 08:15:31;;;;;;;4.03;3.37;;;;;;;;;;5090825;28;20197;-60
2022/08/06 08:18:03;;;;;;;4.17;3.10;;;;;;;;;;5121635;28;20215;-60
2022/08/06 08:20:34;;;;;;;4.17;3.07;;;;;;;;;;5122012;27;20224;-60
2022/08/06 08:23:05;;;;;;;3.13;2.93;;;;;;;;;;5118142;28;20275;-60
2022/08/06 08:25:35;;;;;;;3.03;2.83;;;;;;;;;;5101334;28;20236;-60
2022/08/06 08:28:10;;;;;;;4.77;3.17;;;;;;;;;;5101294;28;20675;-59
2022/08/06 08:30:44;;;;;;;3.30;3.00;;;;;;;;;;5101029;28;20246;-59
2022/08/06 08:33:18;;;;;;;3.33;2.60;;;;;;;;;;5100881;28;20233;-60
2022/08/06 08:35:46;;;;;;;5.93;3.40;;;;;;;;;;5101059;28;20193;-60
2022/08/06 08:38:26;;;;;;;5.10;2.90;;;;;;;;;;5100802;28;20660;-60
2022/08/06 08:40:57;;;;;;;4.20;3.20;;;;;;;;;;5101184;28;20208;-60
2022/08/06 08:43:26;;;;;;;3.20;2.90;;;;;;;;;;5101235;28;20255;-60
2022/08/06 08:46:14;;;;;;;3.50;2.80;;;;;;;;;;5100533;28;20208;-59
2022/08/06 08:48:44;;;;;;;3.40;3.10;;;;;;;;;;5101070;28;20245;-60
2022/08/06 08:51:13;;;;;;;3.27;2.97;;;;;;;;;;5113569;28;20235;-59
2022/08/06 08:53:45;;;;;;;4.40;2.87;;;;;;;;;;5107135;28;20593;-60
2022/08/06 08:56:13;;;;;;;3.40;3.07;;;;;;;;;;5100518;28;20666;-60
2022/08/06 08:59:02;;;;;;;3.00;2.70;;;;;;;;;;5101196;28;20202;-60
2022/08/06 09:01:50;;;;;;;3.70;3.20;;;;;;;;;;5100423;28;20209;-60
2022/08/06 09:04:26;;;;;;;3.33;2.33;;;;;;;;;;5094368;28;20314;-60
2022/08/06 09:06:56;;;;;;;5.27;3.30;;;;;;;;;;5100500;28;20212;-60
2022/08/06 09:09:24;;;;;;;5.73;3.03;;;;;;;;;;5100398;28;20212;-60
2022/08/06 09:11:59;;;;;;;5.43;3.30;;;;;;;;;;5089941;28;20209;-60
2022/08/06 09:14:46;;;;;;;3.47;3.17;;;;;;;;;;5100498;28;20227;-60
2022/08/06 09:17:14;;;;;;;3.23;2.93;;;;;;;;;;5100286;28;20210;-60
2022/08/06 09:20:04;;;;;;;4.80;3.17;;;;;;;;;;5100466;28;20217;-60
2022/08/06 09:22:34;;;;;;;3.20;2.90;;;;;;;;;;5100547;28;20235;-60
2022/08/06 09:25:03;;;;;;;7.60;2.80;;;;;;;;;;5099930;28;20301;-60
2022/08/06 09:27:35;;;;;;;3.77;3.03;;;;;;;;;;5100772;28;20219;-60
2022/08/06 09:30:17;;;;;;;4.03;2.83;;;;;;;;;;5115894;28;20269;-59
2022/08/06 09:32:57;;;;;;;4.10;3.00;;;;;;;;;;5099907;28;20208;-60
2022/08/06 09:35:32;;;;;;;5.60;2.87;;;;;;;;;;5099903;28;20685;-60
2022/08/06 09:38:14;;;;;;;3.90;3.00;;;;;;;;;;5117175;28;20210;-59
2022/08/06 09:40:59;;;;;;;4.37;2.63;;;;;;;;;;5120410;28;20207;-60
2022/08/06 09:43:27;;;;;;;3.00;2.73;;;;;;;;;;5109795;28;20221;-60
2022/08/06 09:46:15;;;;;;;3.50;3.07;;;;;;;;;;5100573;28;20202;-60
2022/08/06 09:48:57;;;;;;;4.47;3.10;;;;;;;;;;5120223;28;20210;-60
2022/08/06 09:51:47;;;;;;;2.60;2.40;;;;;;;;;;5119372;28;20215;-60
2022/08/06 09:54:20;;;;;;;3.30;2.97;;;;;;;;;;5101346;28;20226;-60
2022/08/06 09:56:58;;;;;;;3.93;2.97;;;;;;;;;;5099421;28;20615;-60
2022/08/06 09:59:26;;;;;;;3.47;2.73;;;;;;;;;;5099586;28;20208;-60
2022/08/06 10:02:00;;;;;;;3.00;2.60;;;;;;;;;;5099507;28;20221;-60
2022/08/06 10:04:28;;;;;;;3.40;2.67;;;;;;;;;;5099237;28;20230;-60
2022/08/06 10:07:05;;;;;;;3.07;2.50;;;;;;;;;;5099683;28;20239;-60
2022/08/06 10:09:37;;;;;;;3.87;2.77;;;;;;;;;;5099515;28;20338;-60
2022/08/06 10:12:18;;;;;;;3.67;2.63;;;;;;;;;;5099438;28;20202;-60
2022/08/06 10:14:52;;;;;;;2.67;2.47;;;;;;;;;;5102099;28;20632;-60
2022/08/06 10:17:22;;;;;;;2.80;2.50;;;;;;;;;;5114067;28;20258;-60
2022/08/06 10:20:05;;;;;;;2.67;2.47;;;;;;;;;;5099140;28;20719;-60
2022/08/06 10:22:49;;;;;;;5.23;3.00;;;;;;;;;;5098984;28;20643;-60
2022/08/06 10:25:18;;;;;;;2.90;2.70;;;;;;;;;;5091184;28;20235;-60
2022/08/06 10:27:56;;;;;;;2.90;2.70;;;;;;;;;;5099165;28;20295;-60
2022/08/06 10:30:24;;;;;;;4.57;2.30;;;;;;;;;;5098664;28;20238;-60
2022/08/06 10:32:53;;;;;;;4.27;2.70;;;;;;;;;;5098687;28;20212;-60
2022/08/06 10:35:26;;;;;;;4.00;2.73;;;;;;;;;;5098565;28;20594;-60
2022/08/06 10:37:59;;;;;;;3.30;2.50;;;;;;;;;;5098542;28;20234;-60
2022/08/06 10:40:31;;;;;;;2.97;2.72;;;;;;;;;;5098665;28;20677;-60
2022/08/06 10:43:03;;;;;;;2.95;2.65;;;;;;;;;;5098906;28;20239;-60
2022/08/06 10:45:34;;;;;;;2.72;2.53;;;;;;;;;;5098406;28;20200;-60
2022/08/06 10:48:17;;;;;;;9.05;3.10;;;;;;;;;;5098532;28;20236;-60
2022/08/06 10:51:05;;;;;;;2.70;2.50;;;;;;;;;;5098510;28;20356;-60
2022/08/06 10:53:35;;;;;;;4.38;2.65;;;;;;;;;;5098553;28;20227;-60
2022/08/06 10:56:24;;;;;;;2.70;2.50;;;;;;;;;;5117715;28;20237;-60
2022/08/06 10:58:59;;;;;;;2.92;2.20;;;;;;;;;;5117758;28;20692;-60
2022/08/06 11:01:31;;;;;;;2.83;2.17;;;;;;;;;;5118459;28;20655;-60
2022/08/06 11:04:24;;;;;;;4.00;2.65;;;;;;;;;;5118953;28;20229;-60
2022/08/06 11:07:09;;;;;;;3.10;2.80;;;;;;;;;;5116338;28;20222;-60
2022/08/06 11:09:45;;;;;;;2.72;2.47;;;;;;;;;;5118877;28;20239;-60
2022/08/06 11:12:35;;;;;;;2.88;2.60;;;;;;;;;;5118345;28;20260;-60
2022/08/06 11:15:05;;;;;;;2.63;2.33;;;;;;;;;;5110581;28;20266;-60
2022/08/06 11:17:44;;;;;;;4.70;2.55;;;;;;;;;;5097926;28;20725;-60
2022/08/06 11:20:31;;;;;;;3.58;2.72;;;;;;;;;;5098296;28;20249;-60
2022/08/06 11:23:00;;;;;;;2.13;2.00;;;;;;;;;;5098255;28;20212;-60
2022/08/06 11:25:40;;;;;;;5.85;2.97;;;;;;;;;;5097683;28;20271;-60
2022/08/06 11:28:08;;;;;;;3.22;2.65;;;;;;;;;;5098105;28;20227;-60
2022/08/06 11:30:37;;;;;;;2.80;2.28;;;;;;;;;;5097555;28;20766;-60
2022/08/06 11:33:05;;;;;;;3.13;2.50;;;;;;;;;;5097792;28;20247;-60
2022/08/06 11:35:45;;;;;;;4.25;2.25;;;;;;;;;;5098008;28;20225;-60
2022/08/06 11:38:38;;;;;;;5.88;2.63;;;;;;;;;;5097881;28;20211;-60
2022/08/06 11:41:21;;;;;;;2.40;2.20;;;;;;;;;;5097968;28;20201;-60
2022/08/06 11:44:10;;;;;;;2.53;2.25;;;;;;;;;;5097730;28;20326;-60
2022/08/06 11:46:45;;;;;;;3.47;2.47;;;;;;;;;;5097761;28;20259;-60
2022/08/06 11:49:19;;;;;;;4.00;2.60;;;;;;;;;;5097720;28;20721;-60
2022/08/06 11:51:48;;;;;;;3.47;2.72;;;;;;;;;;5101185;28;20236;-60
2022/08/06 11:54:32;;;;;;;3.40;2.45;;;;;;;;;;5119529;28;20722;-60
2022/08/06 11:57:23;;;;;;;4.88;2.47;;;;;;;;;;5122395;28;20597;-60
2022/08/06 12:00:24;;;;;;;5.05;2.70;;;;;;;;;;5122542;28;20218;-60
2022/08/06 12:02:59;;;;;;;4.72;2.85;;;;;;;;;;5121969;28;20206;-60
2022/08/06 12:05:37;;;;;;;2.35;2.15;;;;;;;;;;5122371;28;20205;-60
2022/08/06 12:08:15;;;;;;;4.68;2.40;;;;;;;;;;5118225;28;20248;-60
2022/08/06 12:11:27;;;;;;;2.58;2.38;;;;;;;;;;5101455;28;20202;-60
2022/08/06 12:13:56;;;;;;;3.85;2.35;;;;;;;;;;5101529;28;20220;-60
2022/08/06 12:16:45;;;;;;;2.35;2.15;;;;;;;;;;5099928;28;20309;-60
2022/08/06 12:19:21;;;;;;;3.55;2.50;;;;;;;;;;5100634;28;20254;-60
2022/08/06 12:21:52;;;;;;;2.45;2.25;;;;;;;;;;5101435;28;20288;-61
2022/08/06 12:24:25;;;;;;;3.80;2.40;;;;;;;;;;5100014;28;20303;-60
2022/08/06 12:27:14;;;;;;;2.10;2.00;;;;;;;;;;5101904;28;20589;-60
2022/08/06 12:29:44;;;;;;;2.50;2.28;;;;;;;;;;5100118;28;20200;-61
2022/08/06 12:32:22;;;;;;;3.85;2.33;;;;;;;;;;5100241;28;20299;-60
2022/08/06 12:34:52;;;;;;;3.58;2.17;;;;;;;;;;5099267;28;20294;-60
2022/08/06 12:37:35;;;;;;;2.28;2.08;;;;;;;;;;5101162;28;20222;-60
2022/08/06 12:40:26;;;;;;;3.55;2.20;;;;;;;;;;5092482;28;20220;-60
2022/08/06 12:42:55;;;;;;;2.33;2.22;;;;;;;;;;5080795;28;20200;-60
2022/08/06 12:45:32;;;;;;;2.75;2.13;;;;;;;;;;5081849;28;20238;-59
2022/08/06 12:48:20;;;;;;;1.92;1.83;;;;;;;;;;5084265;28;20334;-59
2022/08/06 12:51:02;;;;;;;3.65;2.25;;;;;;;;;;5082079;28;20247;-60
2022/08/06 12:53:39;;;;;;;2.17;2.08;;;;;;;;;;5081762;28;20341;-60
2022/08/06 12:56:14;;;;;;;3.22;2.20;;;;;;;;;;5083422;28;20312;-60
2022/08/06 12:58:56;;;;;;;2.97;2.05;;;;;;;;;;5080959;28;20198;-60
2022/08/06 13:01:27;;;;;;;2.58;2.03;;;;;;;;;;5082388;28;20228;-60
2022/08/06 13:04:15;;;;;;;2.88;2.35;;;;;;;;;;5083979;28;20222;-60
2022/08/06 13:06:45;;;;;;;3.42;2.22;;;;;;;;;;5099982;28;20197;-60
2022/08/06 13:09:15;;;;;;;2.85;2.40;;;;;;;;;;5099842;28;20252;-60
2022/08/06 13:11:44;;;;;;;2.03;1.85;;;;;;;;;;5099471;28;20211;-60
2022/08/06 13:14:19;;;;;;;2.20;2.00;;;;;;;;;;5101331;28;20584;-60
2022/08/06 13:16:49;;;;;;;2.10;2.00;;;;;;;;;;5096931;28;20229;-60
2022/08/06 13:19:24;;;;;;;2.50;2.00;;;;;;;;;;5100486;28;20193;-60
2022/08/06 13:22:09;;;;;;;2.60;2.38;;;;;;;;;;5099630;28;20200;-60
2022/08/06 13:24:38;;;;;;;2.30;2.10;;;;;;;;;;5097795;28;20233;-60
2022/08/06 13:27:32;;;;;;;4.63;2.80;;;;;;;;;;5101432;28;20190;-60
2022/08/06 13:30:02;;;;;;;4.00;2.15;;;;;;;;;;5098934;28;20257;-60
2022/08/06 13:32:51;;;;;;;2.78;1.77;;;;;;;;;;5099934;28;20201;-60
2022/08/06 13:35:26;;;;;;;2.67;2.25;;;;;;;;;;5098487;28;20213;-60
2022/08/06 13:38:00;;;;;;;2.45;2.25;;;;;;;;;;5101397;28;20232;-60
2022/08/06 13:40:44;;;;;;;3.10;2.13;;;;;;;;;;5101439;28;20284;-60
2022/08/06 13:43:33;;;;;;;2.30;2.10;;;;;;;;;;5100030;28;20213;-60
2022/08/06 13:46:09;;;;;;;4.35;2.05;;;;;;;;;;5097689;28;20193;-60
2022/08/06 13:48:44;;;;;;;2.08;1.83;;;;;;;;;;5100881;28;20362;-60
2022/08/06 13:51:13;;;;;;;5.40;2.60;;;;;;;;;;5101268;28;20194;-60
2022/08/06 13:53:56;;;;;;;2.53;2.33;;;;;;;;;;5101634;28;20230;-60
2022/08/06 13:56:26;;;;;;;2.30;2.17;;;;;;;;;;5099642;28;20225;-60
2022/08/06 13:58:56;;;;;;;2.00;1.83;;;;;;;;;;5106878;28;20196;-60
2022/08/06 14:01:24;;;;;;;2.45;2.25;;;;;;;;;;5119859;28;20204;-60
2022/08/06 14:04:12;;;;;;;2.63;2.17;;;;;;;;;;5120008;28;20302;-60
2022/08/06 14:06:41;;;;;;;4.53;2.08;;;;;;;;;;5120041;28;20204;-60
2022/08/06 14:09:13;;;;;;;1.92;1.83;;;;;;;;;;5119350;28;20288;-60
2022/08/06 14:11:50;;;;;;;2.10;2.00;;;;;;;;;;5118204;28;20273;-61
2022/08/06 14:14:20;;;;;;;2.53;2.33;;;;;;;;;;5112316;28;20245;-60
2022/08/06 14:16:50;;;;;;;2.85;2.30;;;;;;;;;;5088528;28;20260;-61
2022/08/06 14:19:20;;;;;;;2.40;2.03;;;;;;;;;;5098794;28;20201;-60
2022/08/06 14:22:08;;;;;;;2.33;2.08;;;;;;;;;;5098948;28;20223;-60
2022/08/06 14:24:36;;;;;;;4.78;2.10;;;;;;;;;;5098765;28;20575;-60
2022/08/06 14:27:06;;;;;;;3.08;2.38;;;;;;;;;;5099079;28;20189;-60
2022/08/06 14:29:52;;;;;;;5.35;2.50;;;;;;;;;;5100256;28;20201;-60
2022/08/06 14:32:41;;;;;;;2.58;2.20;;;;;;;;;;5096065;28;20637;-60
2022/08/06 14:35:16;;;;;;;3.95;2.30;;;;;;;;;;5096106;28;20201;-60
2022/08/06 14:37:44;;;;;;;7.00;2.42;;;;;;;;;;5100143;28;20229;-60
2022/08/06 14:44:54;;;;;;;3.47;1.95;;;;;;;;;;5098144;28;20636;-61
2022/08/06 14:46:25;;;;;;;2.80;2.55;;;;;;;;;;5098410;28;20250;-60
2022/08/06 14:48:53;;;;;;;2.80;2.30;;;;;;;;;;5098758;28;20209;-60
2022/08/06 14:51:26;;;;;;;3.17;2.08;;;;;;;;;;5092613;28;20205;-60
2022/08/06 14:54:15;;;;;;;2.53;1.90;;;;;;;;;;5098342;28;20260;-60
2022/08/06 14:56:43;;;;;;;5.18;2.40;;;;;;;;;;5098491;28;20338;-60
2022/08/06 14:59:18;;;;;;;4.53;2.55;;;;;;;;;;5098420;28;20574;-60
2022/08/06 15:01:47;;;;;;;2.13;1.92;;;;;;;;;;5098460;28;20210;-61
2022/08/06 15:04:17;;;;;;;3.28;2.20;;;;;;;;;;5098700;28;20316;-60
2022/08/06 15:06:53;;;;;;;2.17;1.98;;;;;;;;;;5098729;28;20289;-59
2022/08/06 15:09:26;;;;;;;2.88;2.05;;;;;;;;;;5105236;28;20648;-59
2022/08/06 15:12:14;;;;;;;2.03;1.88;;;;;;;;;;5098042;28;20596;-59
2022/08/06 15:15:02;;;;;;;2.00;1.83;;;;;;;;;;5098064;28;20224;-59
2022/08/06 15:17:31;;;;;;;4.57;2.53;;;;;;;;;;5098000;28;20256;-59
2022/08/06 15:20:20;;;;;;;10.70;2.80;;;;;;;;;;5098084;28;20299;-59
2022/08/06 15:22:53;;;;;;;4.30;2.00;;;;;;;;;;5097757;28;20209;-60
2022/08/06 15:25:22;;;;;;;4.80;2.90;;;;;;;;;;5098861;28;20239;-60
2022/08/06 15:28:10;;;;;;;2.85;2.20;;;;;;;;;;5098468;28;20276;-59
2022/08/06 15:30:39;;;;;;;2.85;2.17;;;;;;;;;;5097955;28;20630;-60
2022/08/06 15:33:13;;;;;;;2.53;2.10;;;;;;;;;;5095814;28;20220;-60
2022/08/06 15:35:43;;;;;;;2.47;2.28;;;;;;;;;;5097067;28;20197;-59
2022/08/06 15:38:27;;;;;;;2.60;2.40;;;;;;;;;;5095907;28;20243;-59
2022/08/06 15:40:59;;;;;;;2.30;2.20;;;;;;;;;;5095205;28;20196;-60
2022/08/06 15:43:28;;;;;;;2.45;2.17;;;;;;;;;;5098643;28;20221;-60
2022/08/06 15:46:12;;;;;;;3.22;2.60;;;;;;;;;;5096353;28;20211;-60